sensor_id;sensor_type;location;lat;lon;timestamp;temperature;humidity
72762;SHT30;60886;55.034;73.150;2023-05-19T00:01:18;6.61;53.65
72762;SHT30;60886;55.034;73.150;2023-05-19T00:04:20;6.69;52.69
72762;SHT30;60886;55.034;73.150;2023-05-19T00:07:27;6.80;54.77
72762;SHT30;60886;55.034;73.150;2023-05-19T00:10:30;6.82;53.97
72762;SHT30;60886;55.034;73.150;2023-05-19T00:13:33;6.87;53.85
72762;SHT30;60886;55.034;73.150;2023-05-19T00:16:35;6.95;51.88
72762;SHT30;60886;55.034;73.150;2023-05-19T00:19:38;7.04;52.77
72762;SHT30;60886;55.034;73.150;2023-05-19T00:22:40;7.10;52.56
72762;SHT30;60886;55.034;73.150;2023-05-19T00:25:44;7.23;52.54
72762;SHT30;60886;55.034;73.150;2023-05-19T00:28:45;7.31;52.60
72762;SHT30;60886;55.034;73.150;2023-05-19T00:31:46;7.34;51.91
72762;SHT30;60886;55.034;73.150;2023-05-19T00:34:48;7.43;52.22
72762;SHT30;60886;55.034;73.150;2023-05-19T00:37:51;7.52;51.50
72762;SHT30;60886;55.034;73.150;2023-05-19T00:40:53;7.65;51.92
72762;SHT30;60886;55.034;73.150;2023-05-19T00:43:54;7.77;49.98
72762;SHT30;60886;55.034;73.150;2023-05-19T00:46:56;7.82;50.32
72762;SHT30;60886;55.034;73.150;2023-05-19T00:49:58;7.95;50.04
72762;SHT30;60886;55.034;73.150;2023-05-19T00:53:00;8.06;51.47
72762;SHT30;60886;55.034;73.150;2023-05-19T00:56:02;8.13;49.65
72762;SHT30;60886;55.034;73.150;2023-05-19T00:59:04;8.25;49.56
72762;SHT30;60886;55.034;73.150;2023-05-19T01:02:06;8.37;49.49
72762;SHT30;60886;55.034;73.150;2023-05-19T01:05:08;8.53;48.31
72762;SHT30;60886;55.034;73.150;2023-05-19T01:08:16;9.11;47.07
72762;SHT30;60886;55.034;73.150;2023-05-19T01:11:18;9.42;46.29
72762;SHT30;60886;55.034;73.150;2023-05-19T01:14:20;9.55;45.40
72762;SHT30;60886;55.034;73.150;2023-05-19T01:20:35;9.97;45.14
72762;SHT30;60886;55.034;73.150;2023-05-19T01:24:12;10.13;44.41
72762;SHT30;60886;55.034;73.150;2023-05-19T01:30:48;10.71;43.67
72762;SHT30;60886;55.034;73.150;2023-05-19T01:33:53;10.92;43.37
72762;SHT30;60886;55.034;73.150;2023-05-19T01:36:55;11.04;43.55
72762;SHT30;60886;55.034;73.150;2023-05-19T01:39:58;11.11;42.59
72762;SHT30;60886;55.034;73.150;2023-05-19T01:43:03;11.20;43.36
72762;SHT30;60886;55.034;73.150;2023-05-19T01:46:05;11.46;42.67
72762;SHT30;60886;55.034;73.150;2023-05-19T01:49:08;11.55;41.91
72762;SHT30;60886;55.034;73.150;2023-05-19T01:52:09;11.66;41.43
72762;SHT30;60886;55.034;73.150;2023-05-19T01:55:11;11.86;42.67
72762;SHT30;60886;55.034;73.150;2023-05-19T02:01:38;12.13;40.29
72762;SHT30;60886;55.034;73.150;2023-05-19T02:04:51;12.30;41.32
72762;SHT30;60886;55.034;73.150;2023-05-19T02:08:26;12.49;41.92
72762;SHT30;60886;55.034;73.150;2023-05-19T02:14:54;12.86;39.90
72762;SHT30;60886;55.034;73.150;2023-05-19T02:17:58;12.86;39.59
72762;SHT30;60886;55.034;73.150;2023-05-19T02:21:04;12.96;40.31
72762;SHT30;60886;55.034;73.150;2023-05-19T02:24:06;13.09;40.13
72762;SHT30;60886;55.034;73.150;2023-05-19T02:27:08;13.20;39.99
72762;SHT30;60886;55.034;73.150;2023-05-19T02:30:09;13.36;39.66
72762;SHT30;60886;55.034;73.150;2023-05-19T02:33:16;13.51;39.80
72762;SHT30;60886;55.034;73.150;2023-05-19T02:36:19;13.73;41.33
72762;SHT30;60886;55.034;73.150;2023-05-19T02:39:25;13.93;37.33
72762;SHT30;60886;55.034;73.150;2023-05-19T02:42:29;13.97;36.92
72762;SHT30;60886;55.034;73.150;2023-05-19T02:45:30;14.01;38.50
72762;SHT30;60886;55.034;73.150;2023-05-19T02:48:31;14.11;37.73
72762;SHT30;60886;55.034;73.150;2023-05-19T02:51:33;14.22;37.44
72762;SHT30;60886;55.034;73.150;2023-05-19T02:54:34;14.34;38.33
72762;SHT30;60886;55.034;73.150;2023-05-19T02:57:36;14.48;37.71
72762;SHT30;60886;55.034;73.150;2023-05-19T03:00:43;14.54;37.85
72762;SHT30;60886;55.034;73.150;2023-05-19T03:03:45;14.73;36.86
72762;SHT30;60886;55.034;73.150;2023-05-19T03:06:46;14.83;36.61
72762;SHT30;60886;55.034;73.150;2023-05-19T03:09:48;14.76;37.77
72762;SHT30;60886;55.034;73.150;2023-05-19T03:12:49;15.03;37.20
72762;SHT30;60886;55.034;73.150;2023-05-19T03:15:51;15.16;36.34
72762;SHT30;60886;55.034;73.150;2023-05-19T03:18:52;15.22;36.52
72762;SHT30;60886;55.034;73.150;2023-05-19T03:21:55;15.31;36.39
72762;SHT30;60886;55.034;73.150;2023-05-19T03:24:57;15.36;36.02
72762;SHT30;60886;55.034;73.150;2023-05-19T03:27:59;15.30;35.05
72762;SHT30;60886;55.034;73.150;2023-05-19T03:31:00;15.43;34.73
72762;SHT30;60886;55.034;73.150;2023-05-19T03:34:07;15.51;35.98
72762;SHT30;60886;55.034;73.150;2023-05-19T03:37:09;15.54;34.03
72762;SHT30;60886;55.034;73.150;2023-05-19T03:40:12;15.68;34.36
72762;SHT30;60886;55.034;73.150;2023-05-19T03:43:16;15.80;34.21
72762;SHT30;60886;55.034;73.150;2023-05-19T03:46:23;15.84;34.70
72762;SHT30;60886;55.034;73.150;2023-05-19T03:49:34;15.87;35.46
72762;SHT30;60886;55.034;73.150;2023-05-19T03:52:39;15.91;34.18
72762;SHT30;60886;55.034;73.150;2023-05-19T03:55:57;16.09;33.61
72762;SHT30;60886;55.034;73.150;2023-05-19T03:58:59;16.29;34.53
72762;SHT30;60886;55.034;73.150;2023-05-19T04:02:00;16.43;33.72
72762;SHT30;60886;55.034;73.150;2023-05-19T04:05:03;16.46;34.37
72762;SHT30;60886;55.034;73.150;2023-05-19T04:08:16;16.60;32.89
72762;SHT30;60886;55.034;73.150;2023-05-19T04:11:18;16.63;33.08
72762;SHT30;60886;55.034;73.150;2023-05-19T04:14:20;16.69;31.78
72762;SHT30;60886;55.034;73.150;2023-05-19T04:17:21;16.67;32.98
72762;SHT30;60886;55.034;73.150;2023-05-19T04:20:26;16.79;33.05
72762;SHT30;60886;55.034;73.150;2023-05-19T04:23:27;16.70;30.96
72762;SHT30;60886;55.034;73.150;2023-05-19T04:26:29;16.59;30.69
72762;SHT30;60886;55.034;73.150;2023-05-19T04:29:35;16.46;31.40
72762;SHT30;60886;55.034;73.150;2023-05-19T04:32:37;16.42;31.47
72762;SHT30;60886;55.034;73.150;2023-05-19T04:35:41;16.42;33.36
72762;SHT30;60886;55.034;73.150;2023-05-19T04:38:46;16.63;30.33
72762;SHT30;60886;55.034;73.150;2023-05-19T04:41:48;16.65;32.56
72762;SHT30;60886;55.034;73.150;2023-05-19T04:44:50;16.72;31.96
72762;SHT30;60886;55.034;73.150;2023-05-19T04:47:52;16.73;32.53
72762;SHT30;60886;55.034;73.150;2023-05-19T04:50:58;16.81;32.06
72762;SHT30;60886;55.034;73.150;2023-05-19T04:54:03;16.86;29.85
72762;SHT30;60886;55.034;73.150;2023-05-19T04:57:04;16.70;30.14
72762;SHT30;60886;55.034;73.150;2023-05-19T05:00:09;16.67;30.02
72762;SHT30;60886;55.034;73.150;2023-05-19T05:03:25;16.72;30.85
72762;SHT30;60886;55.034;73.150;2023-05-19T05:06:27;16.91;31.02
72762;SHT30;60886;55.034;73.150;2023-05-19T05:09:29;16.90;31.46
72762;SHT30;60886;55.034;73.150;2023-05-19T05:12:33;16.86;31.85
72762;SHT30;60886;55.034;73.150;2023-05-19T05:15:35;16.91;30.88
72762;SHT30;60886;55.034;73.150;2023-05-19T05:18:37;16.88;30.93
72762;SHT30;60886;55.034;73.150;2023-05-19T05:21:39;16.91;29.95
72762;SHT30;60886;55.034;73.150;2023-05-19T05:24:42;16.79;31.70
72762;SHT30;60886;55.034;73.150;2023-05-19T05:27:45;16.88;31.49
72762;SHT30;60886;55.034;73.150;2023-05-19T05:30:47;17.02;30.39
72762;SHT30;60886;55.034;73.150;2023-05-19T05:33:50;17.03;29.55
72762;SHT30;60886;55.034;73.150;2023-05-19T05:36:55;17.08;30.45
72762;SHT30;60886;55.034;73.150;2023-05-19T05:39:57;17.06;31.10
72762;SHT30;60886;55.034;73.150;2023-05-19T05:42:59;17.10;32.26
72762;SHT30;60886;55.034;73.150;2023-05-19T05:46:03;17.14;30.37
72762;SHT30;60886;55.034;73.150;2023-05-19T05:49:05;17.14;29.94
72762;SHT30;60886;55.034;73.150;2023-05-19T05:52:10;17.03;30.25
72762;SHT30;60886;55.034;73.150;2023-05-19T05:55:18;17.00;30.91
72762;SHT30;60886;55.034;73.150;2023-05-19T05:58:21;16.91;31.57
72762;SHT30;60886;55.034;73.150;2023-05-19T06:01:28;16.96;31.02
72762;SHT30;60886;55.034;73.150;2023-05-19T06:04:32;17.04;29.60
72762;SHT30;60886;55.034;73.150;2023-05-19T06:07:33;17.00;29.67
72762;SHT30;60886;55.034;73.150;2023-05-19T06:10:35;17.11;30.33
72762;SHT30;60886;55.034;73.150;2023-05-19T06:13:44;17.14;29.23
72762;SHT30;60886;55.034;73.150;2023-05-19T06:16:54;17.23;28.82
72762;SHT30;60886;55.034;73.150;2023-05-19T06:19:55;17.06;29.69
72762;SHT30;60886;55.034;73.150;2023-05-19T06:22:59;16.90;29.80
72762;SHT30;60886;55.034;73.150;2023-05-19T06:26:01;16.75;30.18
72762;SHT30;60886;55.034;73.150;2023-05-19T06:29:04;16.77;30.56
72762;SHT30;60886;55.034;73.150;2023-05-19T06:32:06;16.77;30.24
72762;SHT30;60886;55.034;73.150;2023-05-19T06:35:07;16.81;28.67
72762;SHT30;60886;55.034;73.150;2023-05-19T06:38:16;16.96;29.67
72762;SHT30;60886;55.034;73.150;2023-05-19T06:41:18;16.86;28.61
72762;SHT30;60886;55.034;73.150;2023-05-19T06:44:21;16.79;29.31
72762;SHT30;60886;55.034;73.150;2023-05-19T06:47:24;16.83;29.93
72762;SHT30;60886;55.034;73.150;2023-05-19T06:50:26;16.75;29.02
72762;SHT30;60886;55.034;73.150;2023-05-19T06:53:29;16.76;29.86
72762;SHT30;60886;55.034;73.150;2023-05-19T06:56:31;16.73;29.07
72762;SHT30;60886;55.034;73.150;2023-05-19T06:59:33;16.73;29.72
72762;SHT30;60886;55.034;73.150;2023-05-19T07:02:34;16.79;29.56
72762;SHT30;60886;55.034;73.150;2023-05-19T07:05:43;16.83;29.89
72762;SHT30;60886;55.034;73.150;2023-05-19T07:08:45;17.04;29.89
72762;SHT30;60886;55.034;73.150;2023-05-19T07:11:49;17.13;29.31
72762;SHT30;60886;55.034;73.150;2023-05-19T07:14:51;17.14;29.54
72762;SHT30;60886;55.034;73.150;2023-05-19T07:17:53;17.20;29.94
72762;SHT30;60886;55.034;73.150;2023-05-19T07:20:54;17.32;28.19
72762;SHT30;60886;55.034;73.150;2023-05-19T07:23:55;17.41;29.13
72762;SHT30;60886;55.034;73.150;2023-05-19T07:26:57;17.52;29.22
72762;SHT30;60886;55.034;73.150;2023-05-19T07:29:58;17.55;29.10
72762;SHT30;60886;55.034;73.150;2023-05-19T07:33:00;17.42;29.13
72762;SHT30;60886;55.034;73.150;2023-05-19T07:36:01;17.26;28.81
72762;SHT30;60886;55.034;73.150;2023-05-19T07:39:03;17.37;29.71
72762;SHT30;60886;55.034;73.150;2023-05-19T07:42:04;17.58;28.83
72762;SHT30;60886;55.034;73.150;2023-05-19T07:45:06;17.57;28.43
72762;SHT30;60886;55.034;73.150;2023-05-19T07:48:16;17.55;27.84
72762;SHT30;60886;55.034;73.150;2023-05-19T07:51:19;17.58;28.76
72762;SHT30;60886;55.034;73.150;2023-05-19T07:54:21;17.62;27.49
72762;SHT30;60886;55.034;73.150;2023-05-19T07:57:23;17.67;29.04
72762;SHT30;60886;55.034;73.150;2023-05-19T08:00:26;17.77;29.60
72762;SHT30;60886;55.034;73.150;2023-05-19T08:03:28;17.65;28.16
72762;SHT30;60886;55.034;73.150;2023-05-19T08:06:30;17.62;28.87
72762;SHT30;60886;55.034;73.150;2023-05-19T08:09:32;17.65;27.47
72762;SHT30;60886;55.034;73.150;2023-05-19T08:12:33;17.65;28.36
72762;SHT30;60886;55.034;73.150;2023-05-19T08:15:35;17.64;27.75
72762;SHT30;60886;55.034;73.150;2023-05-19T08:18:36;17.68;28.21
72762;SHT30;60886;55.034;73.150;2023-05-19T08:21:38;17.88;27.85
72762;SHT30;60886;55.034;73.150;2023-05-19T08:24:39;17.92;27.08
72762;SHT30;60886;55.034;73.150;2023-05-19T08:27:43;17.93;27.86
72762;SHT30;60886;55.034;73.150;2023-05-19T08:30:44;17.93;28.36
72762;SHT30;60886;55.034;73.150;2023-05-19T08:33:46;18.02;28.69
72762;SHT30;60886;55.034;73.150;2023-05-19T08:36:47;17.93;28.09
72762;SHT30;60886;55.034;73.150;2023-05-19T08:39:49;17.98;28.85
72762;SHT30;60886;55.034;73.150;2023-05-19T08:42:50;17.96;28.05
72762;SHT30;60886;55.034;73.150;2023-05-19T08:45:52;17.93;27.73
72762;SHT30;60886;55.034;73.150;2023-05-19T08:49:00;17.96;27.92
72762;SHT30;60886;55.034;73.150;2023-05-19T08:52:21;17.86;27.25
72762;SHT30;60886;55.034;73.150;2023-05-19T08:56:00;18.09;28.05
72762;SHT30;60886;55.034;73.150;2023-05-19T08:59:02;18.21;26.79
72762;SHT30;60886;55.034;73.150;2023-05-19T09:02:08;18.33;26.82
72762;SHT30;60886;55.034;73.150;2023-05-19T09:05:12;18.34;26.26
72762;SHT30;60886;55.034;73.150;2023-05-19T09:08:16;18.32;26.24
72762;SHT30;60886;55.034;73.150;2023-05-19T09:11:18;18.36;26.44
72762;SHT30;60886;55.034;73.150;2023-05-19T09:14:19;18.40;27.98
72762;SHT30;60886;55.034;73.150;2023-05-19T09:17:24;18.54;27.91
72762;SHT30;60886;55.034;73.150;2023-05-19T09:20:29;18.47;26.51
72762;SHT30;60886;55.034;73.150;2023-05-19T09:23:31;18.59;27.17
72762;SHT30;60886;55.034;73.150;2023-05-19T09:26:41;18.54;27.03
72762;SHT30;60886;55.034;73.150;2023-05-19T09:29:42;18.59;26.73
72762;SHT30;60886;55.034;73.150;2023-05-19T09:32:44;18.63;27.29
72762;SHT30;60886;55.034;73.150;2023-05-19T09:35:46;18.61;26.67
72762;SHT30;60886;55.034;73.150;2023-05-19T09:38:48;18.53;26.09
72762;SHT30;60886;55.034;73.150;2023-05-19T09:41:54;18.54;26.12
72762;SHT30;60886;55.034;73.150;2023-05-19T09:45:00;18.60;26.41
72762;SHT30;60886;55.034;73.150;2023-05-19T09:48:05;18.57;26.50
72762;SHT30;60886;55.034;73.150;2023-05-19T09:51:07;18.59;26.24
72762;SHT30;60886;55.034;73.150;2023-05-19T09:54:14;18.71;25.22
72762;SHT30;60886;55.034;73.150;2023-05-19T09:57:16;18.74;25.59
72762;SHT30;60886;55.034;73.150;2023-05-19T10:00:18;18.78;26.27
72762;SHT30;60886;55.034;73.150;2023-05-19T10:03:21;18.81;26.73
72762;SHT30;60886;55.034;73.150;2023-05-19T10:06:25;18.81;27.66
72762;SHT30;60886;55.034;73.150;2023-05-19T10:09:29;18.93;26.33
72762;SHT30;60886;55.034;73.150;2023-05-19T10:12:31;18.90;25.79
72762;SHT30;60886;55.034;73.150;2023-05-19T10:15:34;18.77;26.07
72762;SHT30;60886;55.034;73.150;2023-05-19T10:18:37;18.83;26.29
72762;SHT30;60886;55.034;73.150;2023-05-19T10:21:38;18.87;26.02
72762;SHT30;60886;55.034;73.150;2023-05-19T10:24:40;18.91;26.60
72762;SHT30;60886;55.034;73.150;2023-05-19T10:27:45;18.94;26.77
72762;SHT30;60886;55.034;73.150;2023-05-19T10:30:53;19.07;26.44
72762;SHT30;60886;55.034;73.150;2023-05-19T10:47:40;19.27;26.08
72762;SHT30;60886;55.034;73.150;2023-05-19T10:50:52;19.35;26.62
72762;SHT30;60886;55.034;73.150;2023-05-19T10:53:54;19.34;26.47
72762;SHT30;60886;55.034;73.150;2023-05-19T10:56:55;19.35;25.72
72762;SHT30;60886;55.034;73.150;2023-05-19T10:59:58;19.32;26.62
72762;SHT30;60886;55.034;73.150;2023-05-19T11:03:16;19.18;26.41
72762;SHT30;60886;55.034;73.150;2023-05-19T11:06:32;19.14;27.15
72762;SHT30;60886;55.034;73.150;2023-05-19T11:09:41;19.21;27.31
72762;SHT30;60886;55.034;73.150;2023-05-19T11:12:44;19.18;26.27
72762;SHT30;60886;55.034;73.150;2023-05-19T11:15:46;19.21;26.06
72762;SHT30;60886;55.034;73.150;2023-05-19T11:18:48;19.21;26.70
72762;SHT30;60886;55.034;73.150;2023-05-19T11:21:54;19.22;26.60
72762;SHT30;60886;55.034;73.150;2023-05-19T11:24:56;19.29;27.28
72762;SHT30;60886;55.034;73.150;2023-05-19T11:27:59;19.27;26.62
72762;SHT30;60886;55.034;73.150;2023-05-19T11:31:01;19.28;26.92
72762;SHT30;60886;55.034;73.150;2023-05-19T11:34:03;19.34;27.07
72762;SHT30;60886;55.034;73.150;2023-05-19T11:37:07;19.32;26.89
72762;SHT30;60886;55.034;73.150;2023-05-19T11:40:12;19.36;27.00
72762;SHT30;60886;55.034;73.150;2023-05-19T11:43:18;19.29;26.97
72762;SHT30;60886;55.034;73.150;2023-05-19T11:46:20;19.24;27.19
72762;SHT30;60886;55.034;73.150;2023-05-19T11:49:21;19.14;27.03
72762;SHT30;60886;55.034;73.150;2023-05-19T11:52:23;19.24;27.40
72762;SHT30;60886;55.034;73.150;2023-05-19T11:55:25;19.32;26.95
72762;SHT30;60886;55.034;73.150;2023-05-19T11:58:26;19.31;27.54
72762;SHT30;60886;55.034;73.150;2023-05-19T12:01:28;19.27;27.02
72762;SHT30;60886;55.034;73.150;2023-05-19T12:04:31;19.31;27.85
72762;SHT30;60886;55.034;73.150;2023-05-19T12:07:33;19.38;26.79
72762;SHT30;60886;55.034;73.150;2023-05-19T12:10:38;19.38;26.85
72762;SHT30;60886;55.034;73.150;2023-05-19T12:13:43;19.34;26.93
72762;SHT30;60886;55.034;73.150;2023-05-19T12:16:47;19.38;27.20
72762;SHT30;60886;55.034;73.150;2023-05-19T12:19:49;19.38;27.84
72762;SHT30;60886;55.034;73.150;2023-05-19T12:22:55;19.25;27.89
72762;SHT30;60886;55.034;73.150;2023-05-19T12:25:59;19.32;27.31
72762;SHT30;60886;55.034;73.150;2023-05-19T12:29:01;19.32;27.21
72762;SHT30;60886;55.034;73.150;2023-05-19T12:32:07;19.31;27.59
72762;SHT30;60886;55.034;73.150;2023-05-19T12:35:11;19.32;27.22
72762;SHT30;60886;55.034;73.150;2023-05-19T12:38:18;19.29;27.16
72762;SHT30;60886;55.034;73.150;2023-05-19T12:41:20;19.29;27.70
72762;SHT30;60886;55.034;73.150;2023-05-19T12:44:21;19.25;27.75
72762;SHT30;60886;55.034;73.150;2023-05-19T12:47:29;19.25;28.05
72762;SHT30;60886;55.034;73.150;2023-05-19T12:50:32;19.24;27.44
72762;SHT30;60886;55.034;73.150;2023-05-19T12:53:36;19.18;27.83
72762;SHT30;60886;55.034;73.150;2023-05-19T12:56:38;19.18;28.28
72762;SHT30;60886;55.034;73.150;2023-05-19T12:59:49;19.10;28.30
72762;SHT30;60886;55.034;73.150;2023-05-19T13:03:04;19.07;28.07
72762;SHT30;60886;55.034;73.150;2023-05-19T13:06:09;18.98;28.30
72762;SHT30;60886;55.034;73.150;2023-05-19T13:09:10;18.97;28.17
72762;SHT30;60886;55.034;73.150;2023-05-19T13:12:12;19.08;27.90
72762;SHT30;60886;55.034;73.150;2023-05-19T13:15:16;19.04;27.67
72762;SHT30;60886;55.034;73.150;2023-05-19T13:18:18;19.04;27.62
72762;SHT30;60886;55.034;73.150;2023-05-19T13:21:19;19.01;28.13
72762;SHT30;60886;55.034;73.150;2023-05-19T13:24:21;18.97;28.21
72762;SHT30;60886;55.034;73.150;2023-05-19T13:27:22;19.01;27.95
72762;SHT30;60886;55.034;73.150;2023-05-19T13:30:24;18.88;28.54
72762;SHT30;60886;55.034;73.150;2023-05-19T13:33:27;18.78;28.65
72762;SHT30;60886;55.034;73.150;2023-05-19T13:36:29;18.68;28.52
72762;SHT30;60886;55.034;73.150;2023-05-19T13:39:32;18.74;28.43
72762;SHT30;60886;55.034;73.150;2023-05-19T13:42:34;18.77;28.29
72762;SHT30;60886;55.034;73.150;2023-05-19T13:45:36;18.73;28.74
72762;SHT30;60886;55.034;73.150;2023-05-19T13:48:37;18.66;29.33
72762;SHT30;60886;55.034;73.150;2023-05-19T13:51:45;18.56;28.73
72762;SHT30;60886;55.034;73.150;2023-05-19T13:54:47;18.56;28.39
72762;SHT30;60886;55.034;73.150;2023-05-19T13:57:49;18.49;28.74
72762;SHT30;60886;55.034;73.150;2023-05-19T14:00:50;18.50;28.93
72762;SHT30;60886;55.034;73.150;2023-05-19T14:03:54;18.53;28.44
72762;SHT30;60886;55.034;73.150;2023-05-19T14:06:56;18.50;28.21
72762;SHT30;60886;55.034;73.150;2023-05-19T14:09:58;18.52;27.98
72762;SHT30;60886;55.034;73.150;2023-05-19T14:12:59;18.49;28.57
72762;SHT30;60886;55.034;73.150;2023-05-19T14:16:04;18.43;28.45
72762;SHT30;60886;55.034;73.150;2023-05-19T14:19:06;18.37;28.35
72762;SHT30;60886;55.034;73.150;2023-05-19T14:22:07;18.34;28.71
72762;SHT30;60886;55.034;73.150;2023-05-19T14:25:09;18.28;28.73
72762;SHT30;60886;55.034;73.150;2023-05-19T14:28:16;18.22;28.60
72762;SHT30;60886;55.034;73.150;2023-05-19T14:31:18;18.16;28.66
72762;SHT30;60886;55.034;73.150;2023-05-19T14:34:19;18.13;28.67
72762;SHT30;60886;55.034;73.150;2023-05-19T14:37:21;18.03;29.15
72762;SHT30;60886;55.034;73.150;2023-05-19T14:40:22;17.91;29.24
72762;SHT30;60886;55.034;73.150;2023-05-19T14:43:27;17.79;29.15
72762;SHT30;60886;55.034;73.150;2023-05-19T14:46:28;17.78;29.44
72762;SHT30;60886;55.034;73.150;2023-05-19T14:49:30;17.72;29.44
72762;SHT30;60886;55.034;73.150;2023-05-19T14:52:31;17.62;29.80
72762;SHT30;60886;55.034;73.150;2023-05-19T14:55:33;17.52;30.06
72762;SHT30;60886;55.034;73.150;2023-05-19T14:58:34;17.45;30.24
72762;SHT30;60886;55.034;73.150;2023-05-19T15:01:36;17.34;30.53
72762;SHT30;60886;55.034;73.150;2023-05-19T15:04:39;17.24;30.75
72762;SHT30;60886;55.034;73.150;2023-05-19T15:07:44;17.16;30.96
72762;SHT30;60886;55.034;73.150;2023-05-19T15:10:49;17.04;31.23
72762;SHT30;60886;55.034;73.150;2023-05-19T15:13:51;17.00;31.25
72762;SHT30;60886;55.034;73.150;2023-05-19T15:16:55;16.91;31.44
72762;SHT30;60886;55.034;73.150;2023-05-19T15:19:59;16.83;31.75
72762;SHT30;60886;55.034;73.150;2023-05-19T15:23:02;16.70;31.84
72762;SHT30;60886;55.034;73.150;2023-05-19T15:26:04;16.67;31.89
72762;SHT30;60886;55.034;73.150;2023-05-19T15:29:08;16.62;32.05
72762;SHT30;60886;55.034;73.150;2023-05-19T15:32:09;16.56;32.25
72762;SHT30;60886;55.034;73.150;2023-05-19T15:35:11;16.51;32.24
72762;SHT30;60886;55.034;73.150;2023-05-19T15:38:20;16.42;32.28
72762;SHT30;60886;55.034;73.150;2023-05-19T15:41:21;16.39;32.45
72762;SHT30;60886;55.034;73.150;2023-05-19T15:44:22;16.32;32.54
72762;SHT30;60886;55.034;73.150;2023-05-19T15:47:27;16.28;32.63
72762;SHT30;60886;55.034;73.150;2023-05-19T15:50:28;16.25;32.67
72762;SHT30;60886;55.034;73.150;2023-05-19T15:53:30;16.22;32.87
72762;SHT30;60886;55.034;73.150;2023-05-19T15:56:32;16.13;32.97
72762;SHT30;60886;55.034;73.150;2023-05-19T15:59:34;16.08;33.03
72762;SHT30;60886;55.034;73.150;2023-05-19T16:02:38;16.00;33.37
72762;SHT30;60886;55.034;73.150;2023-05-19T16:05:39;15.90;33.49
72762;SHT30;60886;55.034;73.150;2023-05-19T16:08:43;15.84;33.57
72762;SHT30;60886;55.034;73.150;2023-05-19T16:11:45;15.71;33.85
72762;SHT30;60886;55.034;73.150;2023-05-19T16:14:46;15.61;34.10
72762;SHT30;60886;55.034;73.150;2023-05-19T16:17:48;15.49;34.46
72762;SHT30;60886;55.034;73.150;2023-05-19T16:20:50;15.43;34.52
72762;SHT30;60886;55.034;73.150;2023-05-19T16:23:52;15.29;35.40
72762;SHT30;60886;55.034;73.150;2023-05-19T16:26:56;15.17;35.71
72762;SHT30;60886;55.034;73.150;2023-05-19T16:29:57;15.03;35.79
72762;SHT30;60886;55.034;73.150;2023-05-19T16:33:01;14.90;36.09
72762;SHT30;60886;55.034;73.150;2023-05-19T16:36:05;14.82;36.55
72762;SHT30;60886;55.034;73.150;2023-05-19T16:39:06;14.75;36.41
72762;SHT30;60886;55.034;73.150;2023-05-19T16:42:08;14.61;36.59
72762;SHT30;60886;55.034;73.150;2023-05-19T16:45:10;14.46;37.94
72762;SHT30;60886;55.034;73.150;2023-05-19T16:48:16;14.35;37.28
72762;SHT30;60886;55.034;73.150;2023-05-19T16:51:17;14.28;37.96
72762;SHT30;60886;55.034;73.150;2023-05-19T16:54:19;14.20;37.28
72762;SHT30;60886;55.034;73.150;2023-05-19T16:57:21;14.12;37.47
72762;SHT30;60886;55.034;73.150;2023-05-19T17:00:23;14.11;37.43
72762;SHT30;60886;55.034;73.150;2023-05-19T17:03:27;14.08;37.19
72762;SHT30;60886;55.034;73.150;2023-05-19T17:06:30;14.08;37.35
72762;SHT30;60886;55.034;73.150;2023-05-19T17:09:32;14.04;37.17
72762;SHT30;60886;55.034;73.150;2023-05-19T17:12:33;14.01;37.62
72762;SHT30;60886;55.034;73.150;2023-05-19T17:15:35;13.98;37.35
72762;SHT30;60886;55.034;73.150;2023-05-19T17:18:36;13.98;37.24
72762;SHT30;60886;55.034;73.150;2023-05-19T17:21:38;14.01;37.03
72762;SHT30;60886;55.034;73.150;2023-05-19T17:24:40;14.11;36.89
72762;SHT30;60886;55.034;73.150;2023-05-19T17:27:42;14.05;37.37
72762;SHT30;60886;55.034;73.150;2023-05-19T17:30:43;14.01;37.15
72762;SHT30;60886;55.034;73.150;2023-05-19T17:33:44;13.93;38.34
72762;SHT30;60886;55.034;73.150;2023-05-19T17:36:46;13.84;37.68
72762;SHT30;60886;55.034;73.150;2023-05-19T17:39:50;13.84;37.75
72762;SHT30;60886;55.034;73.150;2023-05-19T17:42:51;13.75;38.05
72762;SHT30;60886;55.034;73.150;2023-05-19T17:45:53;13.74;37.95
72762;SHT30;60886;55.034;73.150;2023-05-19T17:48:54;13.71;37.96
72762;SHT30;60886;55.034;73.150;2023-05-19T17:51:56;13.66;38.06
72762;SHT30;60886;55.034;73.150;2023-05-19T17:54:57;13.69;38.07
72762;SHT30;60886;55.034;73.150;2023-05-19T17:57:59;13.63;38.48
72762;SHT30;60886;55.034;73.150;2023-05-19T18:01:01;13.47;39.91
72762;SHT30;60886;55.034;73.150;2023-05-19T18:04:03;13.10;42.45
72762;SHT30;60886;55.034;73.150;2023-05-19T18:07:06;12.88;43.79
72762;SHT30;60886;55.034;73.150;2023-05-19T18:10:09;12.71;43.55
72762;SHT30;60886;55.034;73.150;2023-05-19T18:13:16;12.56;44.58
72762;SHT30;60886;55.034;73.150;2023-05-19T18:16:17;12.41;47.39
72762;SHT30;60886;55.034;73.150;2023-05-19T18:19:19;12.20;47.31
72762;SHT30;60886;55.034;73.150;2023-05-19T18:22:20;12.08;48.11
72762;SHT30;60886;55.034;73.150;2023-05-19T18:25:22;12.00;49.68
72762;SHT30;60886;55.034;73.150;2023-05-19T18:28:23;11.95;48.42
72762;SHT30;60886;55.034;73.150;2023-05-19T18:31:25;11.89;49.93
72762;SHT30;60886;55.034;73.150;2023-05-19T18:34:29;11.79;49.75
72762;SHT30;60886;55.034;73.150;2023-05-19T18:37:30;11.74;50.13
72762;SHT30;60886;55.034;73.150;2023-05-19T18:40:32;11.65;50.02
72762;SHT30;60886;55.034;73.150;2023-05-19T18:43:35;11.60;49.25
72762;SHT30;60886;55.034;73.150;2023-05-19T18:46:36;11.50;48.93
72762;SHT30;60886;55.034;73.150;2023-05-19T18:49:38;11.36;48.85
72762;SHT30;60886;55.034;73.150;2023-05-19T18:52:39;11.35;49.09
72762;SHT30;60886;55.034;73.150;2023-05-19T18:55:41;11.33;49.65
72762;SHT30;60886;55.034;73.150;2023-05-19T18:58:43;11.22;51.87
72762;SHT30;60886;55.034;73.150;2023-05-19T19:01:44;11.15;52.08
72762;SHT30;60886;55.034;73.150;2023-05-19T19:04:45;11.15;48.65
72762;SHT30;60886;55.034;73.150;2023-05-19T19:07:47;11.36;47.30
72762;SHT30;60886;55.034;73.150;2023-05-19T19:10:50;11.50;46.45
72762;SHT30;60886;55.034;73.150;2023-05-19T19:13:51;11.62;46.32
72762;SHT30;60886;55.034;73.150;2023-05-19T19:16:55;11.62;47.22
72762;SHT30;60886;55.034;73.150;2023-05-19T19:19:56;11.67;45.80
72762;SHT30;60886;55.034;73.150;2023-05-19T19:22:59;11.62;46.29
72762;SHT30;60886;55.034;73.150;2023-05-19T19:26:01;11.62;49.36
72762;SHT30;60886;55.034;73.150;2023-05-19T19:29:03;11.49;49.15